Time;durP1;ratioP1;P1;durP2;ratioP2;P2;SDS_P1;SDS_P2;PMS_P1;PMS_P2;Temp;Humidity;BMP_temperature;BMP_pressure;BME280_temperature;BME280_humidity;BME280_pressure;Samples;Min_cycle;Max_cycle;Signal;HPM_P1;HPM_P2
2021/05/12 00:02:02;;;;;;;5.80;4.17;;;;;;;;;;5077420;28;20214;-80
2021/05/12 00:04:27;;;;;;;6.20;4.00;;;;;;;;;;5076846;28;20621;-80
2021/05/12 00:06:53;;;;;;;4.67;4.27;;;;;;;;;;5076995;28;20175;-80
2021/05/12 00:09:18;;;;;;;5.63;4.00;;;;;;;;;;5077001;28;20167;-79
2021/05/12 00:11:43;;;;;;;4.63;4.10;;;;;;;;;;5077011;28;20167;-79
2021/05/12 00:14:09;;;;;;;4.83;4.30;;;;;;;;;;5077001;28;20167;-79
2021/05/12 00:16:34;;;;;;;4.53;3.70;;;;;;;;;;5076490;28;20233;-80
2021/05/12 00:19:00;;;;;;;5.50;4.30;;;;;;;;;;5076871;28;20156;-79
2021/05/12 00:21:34;;;;;;;4.40;3.97;;;;;;;;;;5077390;28;20228;-80
2021/05/12 00:24:00;;;;;;;7.30;4.30;;;;;;;;;;5058887;28;20174;-79
2021/05/12 00:26:28;;;;;;;4.63;4.07;;;;;;;;;;5077104;28;20224;-79
2021/05/12 00:28:54;;;;;;;7.47;4.53;;;;;;;;;;5076997;28;20194;-80
2021/05/12 00:31:19;;;;;;;7.93;4.33;;;;;;;;;;5076367;28;20526;-79
2021/05/12 00:33:44;;;;;;;6.50;4.50;;;;;;;;;;5076313;28;20636;-79
2021/05/12 00:36:10;;;;;;;8.73;4.70;;;;;;;;;;5058523;28;20203;-79
2021/05/12 00:38:35;;;;;;;6.67;4.30;;;;;;;;;;5076530;28;20167;-79
2021/05/12 00:41:03;;;;;;;7.77;4.53;;;;;;;;;;5076132;28;20183;-79
2021/05/12 00:43:28;;;;;;;6.70;4.57;;;;;;;;;;5076375;28;20198;-79
2021/05/12 00:45:53;;;;;;;4.70;4.10;;;;;;;;;;5076150;28;20186;-79
2021/05/12 00:48:19;;;;;;;7.40;4.40;;;;;;;;;;5075727;28;20164;-80
2021/05/12 00:50:44;;;;;;;4.37;4.07;;;;;;;;;;5076555;28;20557;-79
2021/05/12 00:53:09;;;;;;;4.77;4.20;;;;;;;;;;5075990;28;20525;-79
2021/05/12 00:55:34;;;;;;;4.70;4.30;;;;;;;;;;5076763;28;20163;-79
2021/05/12 00:58:00;;;;;;;5.53;4.23;;;;;;;;;;5076126;28;20199;-79
2021/05/12 01:00:28;;;;;;;4.60;4.00;;;;;;;;;;5058463;28;20282;-79
2021/05/12 01:02:54;;;;;;;6.03;4.20;;;;;;;;;;5075853;28;20167;-79
2021/05/12 01:05:23;;;;;;;5.60;4.40;;;;;;;;;;5076324;28;20636;-79
2021/05/12 01:07:48;;;;;;;5.47;4.37;;;;;;;;;;5076079;28;20178;-79
2021/05/12 01:10:13;;;;;;;6.37;4.23;;;;;;;;;;5076298;28;20167;-79
2021/05/12 01:12:38;;;;;;;8.13;4.47;;;;;;;;;;5075670;28;20163;-79
2021/05/12 01:15:04;;;;;;;8.80;4.33;;;;;;;;;;5076091;28;20194;-79
2021/05/12 01:17:29;;;;;;;4.67;3.63;;;;;;;;;;5075646;28;20234;-79
2021/05/12 01:19:55;;;;;;;8.27;4.50;;;;;;;;;;5076055;28;20174;-79
2021/05/12 01:22:20;;;;;;;8.57;4.43;;;;;;;;;;5075466;28;20610;-79
2021/05/12 01:24:45;;;;;;;7.63;4.60;;;;;;;;;;5075673;28;20620;-79
2021/05/12 01:27:11;;;;;;;6.60;4.03;;;;;;;;;;5075499;28;20167;-79
2021/05/12 01:29:36;;;;;;;4.40;4.00;;;;;;;;;;5075922;28;20258;-79
2021/05/12 01:32:03;;;;;;;6.83;4.50;;;;;;;;;;5075722;28;20215;-79
2021/05/12 01:34:29;;;;;;;4.90;4.40;;;;;;;;;;5075678;28;20199;-79
2021/05/12 01:36:54;;;;;;;5.57;4.20;;;;;;;;;;5075331;28;20249;-79
2021/05/12 01:39:19;;;;;;;9.77;4.20;;;;;;;;;;5075085;28;20175;-80
2021/05/12 01:41:45;;;;;;;6.00;4.40;;;;;;;;;;5075582;28;20210;-79
2021/05/12 01:44:11;;;;;;;6.23;4.00;;;;;;;;;;5075351;28;20174;-80
2021/05/12 01:46:40;;;;;;;6.93;4.57;;;;;;;;;;5090918;28;20321;-79
2021/05/12 01:49:06;;;;;;;4.50;4.10;;;;;;;;;;5075407;28;20228;-79
2021/05/12 01:51:31;;;;;;;8.13;4.40;;;;;;;;;;5075130;28;20258;-79
2021/05/12 01:53:56;;;;;;;6.67;4.23;;;;;;;;;;5075067;28;20178;-79
2021/05/12 01:56:22;;;;;;;5.07;3.73;;;;;;;;;;5074935;28;20205;-79
2021/05/12 01:58:47;;;;;;;7.50;4.37;;;;;;;;;;5057029;28;20171;-79
2021/05/12 02:01:12;;;;;;;6.80;4.40;;;;;;;;;;5074452;28;20259;-79
2021/05/12 02:03:38;;;;;;;5.53;4.40;;;;;;;;;;5074656;28;20197;-79
2021/05/12 02:06:04;;;;;;;6.80;4.10;;;;;;;;;;5074870;28;20167;-79
2021/05/12 02:08:29;;;;;;;4.73;3.97;;;;;;;;;;5075089;28;20199;-79
2021/05/12 02:11:04;;;;;;;5.10;4.33;;;;;;;;;;5074720;28;20174;-79
2021/05/12 02:13:30;;;;;;;7.40;4.37;;;;;;;;;;5074963;28;20238;-79
2021/05/12 02:15:56;;;;;;;5.00;4.10;;;;;;;;;;5074694;28;20228;-80
2021/05/12 02:18:22;;;;;;;4.50;3.97;;;;;;;;;;5074416;28;20773;-79
2021/05/12 02:20:47;;;;;;;7.43;4.23;;;;;;;;;;5074596;28;20206;-79
2021/05/12 02:23:14;;;;;;;6.30;4.50;;;;;;;;;;5074771;28;20178;-79
2021/05/12 02:25:40;;;;;;;8.53;4.43;;;;;;;;;;5074448;28;20617;-79
2021/05/12 02:28:05;;;;;;;7.77;4.37;;;;;;;;;;5074410;28;20219;-79
2021/05/12 02:30:31;;;;;;;6.53;4.13;;;;;;;;;;5089850;28;20194;-79
2021/05/12 02:32:57;;;;;;;4.67;4.10;;;;;;;;;;5074321;28;20220;-79
2021/05/12 02:35:22;;;;;;;5.23;4.10;;;;;;;;;;5073992;28;20242;-79
2021/05/12 02:37:48;;;;;;;8.23;4.30;;;;;;;;;;5074326;28;20214;-79
2021/05/12 02:40:15;;;;;;;6.53;3.70;;;;;;;;;;5074900;28;20171;-79
2021/05/12 02:42:40;;;;;;;5.63;4.10;;;;;;;;;;5074820;28;20167;-79
2021/05/12 02:45:06;;;;;;;7.73;4.50;;;;;;;;;;5074187;28;20167;-79
2021/05/12 02:47:34;;;;;;;5.23;4.30;;;;;;;;;;5074620;28;20182;-79
2021/05/12 02:49:59;;;;;;;5.27;4.00;;;;;;;;;;5074087;28;20629;-79
2021/05/12 02:52:25;;;;;;;4.77;4.20;;;;;;;;;;5074038;28;20167;-79
2021/05/12 02:54:50;;;;;;;5.40;4.23;;;;;;;;;;5056209;28;20628;-79
2021/05/12 02:57:16;;;;;;;8.23;4.50;;;;;;;;;;5055962;28;20229;-79
2021/05/12 02:59:41;;;;;;;6.17;4.33;;;;;;;;;;5073760;28;20269;-79
2021/05/12 03:02:07;;;;;;;6.77;4.33;;;;;;;;;;5073653;28;20167;-79
2021/05/12 03:04:32;;;;;;;5.50;4.40;;;;;;;;;;5055958;28;20199;-79
2021/05/12 03:06:57;;;;;;;5.30;4.10;;;;;;;;;;5074174;28;20179;-79
2021/05/12 03:09:23;;;;;;;9.20;4.27;;;;;;;;;;5073907;28;20182;-79
2021/05/12 03:11:49;;;;;;;4.90;4.30;;;;;;;;;;5073762;28;20167;-79
2021/05/12 03:14:15;;;;;;;6.60;4.50;;;;;;;;;;5073575;28;20169;-79
2021/05/12 03:16:41;;;;;;;9.17;4.40;;;;;;;;;;5073455;28;20243;-79
2021/05/12 03:19:06;;;;;;;6.83;4.80;;;;;;;;;;5073834;28;20212;-79
2021/05/12 03:21:33;;;;;;;4.70;4.27;;;;;;;;;;5074552;28;20673;-79
2021/05/12 03:23:59;;;;;;;5.40;4.20;;;;;;;;;;5073993;28;20670;-79
2021/05/12 03:26:24;;;;;;;6.90;4.27;;;;;;;;;;5073415;28;20175;-79
2021/05/12 03:28:49;;;;;;;6.73;4.20;;;;;;;;;;5074416;28;20213;-79
2021/05/12 03:31:15;;;;;;;7.10;4.17;;;;;;;;;;5073590;28;20187;-79
2021/05/12 03:33:40;;;;;;;7.73;4.40;;;;;;;;;;5073950;28;20167;-79
2021/05/12 03:36:06;;;;;;;10.23;3.90;;;;;;;;;;5074119;28;20525;-79
2021/05/12 03:38:32;;;;;;;7.87;4.30;;;;;;;;;;5073846;28;20206;-79
2021/05/12 03:40:57;;;;;;;5.97;4.10;;;;;;;;;;5073510;28;20171;-79
2021/05/12 03:43:22;;;;;;;5.07;4.17;;;;;;;;;;5074168;28;20171;-79
2021/05/12 03:45:48;;;;;;;6.03;4.17;;;;;;;;;;5073311;28;20213;-79
2021/05/12 03:48:13;;;;;;;6.33;4.10;;;;;;;;;;5073478;28;20195;-79
2021/05/12 03:50:38;;;;;;;4.33;3.93;;;;;;;;;;5073292;28;20640;-79
2021/05/12 03:53:04;;;;;;;4.60;4.17;;;;;;;;;;5073606;28;20229;-80
2021/05/12 03:55:30;;;;;;;6.47;4.10;;;;;;;;;;5073180;28;20633;-79
2021/05/12 03:57:55;;;;;;;5.33;4.07;;;;;;;;;;5073501;28;20591;-79
2021/05/12 04:00:21;;;;;;;8.13;4.33;;;;;;;;;;5055367;28;20690;-80
2021/05/12 04:02:46;;;;;;;7.13;4.30;;;;;;;;;;5073890;28;20175;-79
2021/05/12 04:05:13;;;;;;;4.60;4.13;;;;;;;;;;5073323;28;20170;-80
2021/05/12 04:07:38;;;;;;;5.53;4.38;;;;;;;;;;5073280;28;20182;-80
2021/05/12 04:10:05;;;;;;;5.47;4.05;;;;;;;;;;5073536;28;20171;-81
2021/05/12 04:12:31;;;;;;;4.72;3.97;;;;;;;;;;5074081;28;20171;-80
2021/05/12 04:14:56;;;;;;;5.22;4.03;;;;;;;;;;5073258;28;20647;-80
2021/05/12 04:17:21;;;;;;;6.07;4.05;;;;;;;;;;5072744;28;20746;-80
2021/05/12 04:19:46;;;;;;;6.30;4.18;;;;;;;;;;5073585;28;20175;-81
2021/05/12 04:22:13;;;;;;;5.43;3.83;;;;;;;;;;5073500;28;20171;-81
2021/05/12 04:24:38;;;;;;;7.53;4.28;;;;;;;;;;5075034;28;20175;-81
2021/05/12 04:27:04;;;;;;;4.85;4.35;;;;;;;;;;5076499;28;20507;-80
2021/05/12 04:29:29;;;;;;;6.93;4.07;;;;;;;;;;5076486;28;20167;-81
2021/05/12 04:31:55;;;;;;;7.72;4.28;;;;;;;;;;5076907;28;20187;-81
2021/05/12 04:34:20;;;;;;;6.85;4.20;;;;;;;;;;5076678;28;20167;-81
2021/05/12 04:36:45;;;;;;;8.15;3.97;;;;;;;;;;5076276;28;20565;-81
2021/05/12 04:39:11;;;;;;;5.68;4.05;;;;;;;;;;5077087;28;20517;-82
2021/05/12 04:41:36;;;;;;;6.65;4.15;;;;;;;;;;5077064;28;20183;-81
2021/05/12 04:44:02;;;;;;;4.47;4.03;;;;;;;;;;5076279;28;20174;-81
2021/05/12 04:46:27;;;;;;;7.65;4.45;;;;;;;;;;5076449;28;20207;-81
2021/05/12 04:48:53;;;;;;;7.50;4.40;;;;;;;;;;5076462;28;20160;-82
2021/05/12 04:51:19;;;;;;;5.57;4.25;;;;;;;;;;5076622;28;20175;-82
2021/05/12 04:53:45;;;;;;;8.00;4.10;;;;;;;;;;5076561;28;20640;-81
2021/05/12 04:56:11;;;;;;;5.15;3.80;;;;;;;;;;5076187;28;20172;-81
2021/05/12 04:58:36;;;;;;;5.20;3.90;;;;;;;;;;5076237;28;20245;-81
2021/05/12 05:01:01;;;;;;;6.43;3.85;;;;;;;;;;5076156;28;20178;-81
2021/05/12 05:03:27;;;;;;;7.85;4.20;;;;;;;;;;5075739;28;20198;-82
2021/05/12 05:05:52;;;;;;;9.05;4.40;;;;;;;;;;5076477;28;20172;-82
2021/05/12 05:08:17;;;;;;;6.75;4.18;;;;;;;;;;5075803;28;20168;-82
2021/05/12 05:10:43;;;;;;;7.25;4.20;;;;;;;;;;5076271;28;20179;-82
2021/05/12 05:13:08;;;;;;;4.65;3.70;;;;;;;;;;5075901;28;20167;-81
2021/05/12 05:15:34;;;;;;;5.53;3.92;;;;;;;;;;5075953;28;20637;-81
2021/05/12 05:17:59;;;;;;;4.57;3.70;;;;;;;;;;5075313;28;20277;-82
2021/05/12 05:20:27;;;;;;;4.93;3.67;;;;;;;;;;5076246;28;20167;-81
2021/05/12 05:22:52;;;;;;;4.20;3.83;;;;;;;;;;5076222;28;20172;-82
2021/05/12 05:25:18;;;;;;;6.35;4.85;;;;;;;;;;5075791;28;20170;-81
2021/05/12 05:27:43;;;;;;;6.50;4.13;;;;;;;;;;5075762;28;20266;-81
2021/05/12 05:30:09;;;;;;;5.20;4.20;;;;;;;;;;5076150;28;20183;-81
2021/05/12 05:32:34;;;;;;;4.97;4.05;;;;;;;;;;5075962;28;20191;-82
2021/05/12 05:34:59;;;;;;;4.25;3.85;;;;;;;;;;5076095;28;20163;-81
2021/05/12 05:37:25;;;;;;;6.20;4.50;;;;;;;;;;5075036;28;20199;-81
2021/05/12 05:39:55;;;;;;;5.72;4.07;;;;;;;;;;5075671;28;20170;-81
2021/05/12 05:42:20;;;;;;;5.63;4.10;;;;;;;;;;5075396;28;20606;-81
2021/05/12 05:44:47;;;;;;;6.45;3.92;;;;;;;;;;5075297;28;20167;-82
2021/05/12 05:47:12;;;;;;;7.07;3.85;;;;;;;;;;5075565;28;20167;-82
2021/05/12 05:49:37;;;;;;;8.00;4.38;;;;;;;;;;5057304;28;20172;-82
2021/05/12 05:52:03;;;;;;;5.72;3.90;;;;;;;;;;5075449;28;20262;-81
2021/05/12 05:54:28;;;;;;;4.65;3.90;;;;;;;;;;5075096;28;20210;-81
2021/05/12 05:56:54;;;;;;;5.97;3.92;;;;;;;;;;5075275;28;20316;-82
2021/05/12 05:59:19;;;;;;;6.25;3.70;;;;;;;;;;5074655;28;20304;-82
2021/05/12 06:01:44;;;;;;;5.70;3.92;;;;;;;;;;5075560;28;20202;-81
2021/05/12 06:04:10;;;;;;;5.95;4.00;;;;;;;;;;5074718;28;20159;-82
2021/05/12 06:06:35;;;;;;;5.22;3.70;;;;;;;;;;5074827;28;20177;-81
2021/05/12 06:09:01;;;;;;;6.38;3.80;;;;;;;;;;5075013;28;20618;-81
2021/05/12 06:11:26;;;;;;;4.82;3.70;;;;;;;;;;5074714;28;20177;-81
2021/05/12 06:13:51;;;;;;;7.13;4.10;;;;;;;;;;5074359;28;20167;-82
2021/05/12 06:16:17;;;;;;;5.25;3.85;;;;;;;;;;5074808;28;20496;-82
2021/05/12 06:18:44;;;;;;;3.97;3.67;;;;;;;;;;5074959;28;20193;-81
2021/05/12 06:21:09;;;;;;;6.60;3.92;;;;;;;;;;5056622;28;20524;-81
2021/05/12 06:23:35;;;;;;;3.72;3.50;;;;;;;;;;5074868;28;20163;-81
2021/05/12 06:26:00;;;;;;;3.88;3.47;;;;;;;;;;5074494;28;20182;-81
2021/05/12 06:28:26;;;;;;;3.80;3.50;;;;;;;;;;5074506;28;20212;-81
2021/05/12 06:30:51;;;;;;;3.83;3.53;;;;;;;;;;5074380;28;20187;-81
2021/05/12 06:33:17;;;;;;;4.43;3.50;;;;;;;;;;5074335;28;20171;-81
2021/05/12 06:35:43;;;;;;;4.80;3.83;;;;;;;;;;5074351;28;20167;-81
2021/05/12 06:38:08;;;;;;;4.55;3.67;;;;;;;;;;5074631;28;20194;-81
2021/05/12 06:40:34;;;;;;;7.15;3.50;;;;;;;;;;5074611;28;20214;-81
2021/05/12 06:43:00;;;;;;;5.05;3.72;;;;;;;;;;5074348;28;20167;-81
2021/05/12 06:45:25;;;;;;;4.50;3.50;;;;;;;;;;5074299;28;20241;-81
2021/05/12 06:47:53;;;;;;;6.47;3.58;;;;;;;;;;5074025;28;20258;-81
2021/05/12 06:50:19;;;;;;;4.35;3.38;;;;;;;;;;5074432;28;20167;-81
2021/05/12 06:52:44;;;;;;;6.57;3.58;;;;;;;;;;5074399;28;20170;-81
2021/05/12 06:55:10;;;;;;;5.53;3.25;;;;;;;;;;5074291;28;20172;-81
2021/05/12 06:57:35;;;;;;;8.77;4.15;;;;;;;;;;5074618;28;20194;-81
2021/05/12 07:00:00;;;;;;;5.30;3.47;;;;;;;;;;5074388;28;20171;-81
2021/05/12 07:02:26;;;;;;;8.18;3.90;;;;;;;;;;5073933;28;20164;-81
2021/05/12 07:04:51;;;;;;;5.40;3.70;;;;;;;;;;5073919;28;20196;-81
2021/05/12 07:07:16;;;;;;;6.15;3.55;;;;;;;;;;5073948;28;20174;-81
2021/05/12 07:09:42;;;;;;;5.55;3.33;;;;;;;;;;5073897;28;20240;-80
2021/05/12 07:12:07;;;;;;;4.97;3.30;;;;;;;;;;5074098;28;20206;-81
2021/05/12 07:14:32;;;;;;;4.78;3.47;;;;;;;;;;5073446;28;20207;-81
2021/05/12 07:16:58;;;;;;;8.75;4.30;;;;;;;;;;5073690;28;20293;-80
2021/05/12 07:19:23;;;;;;;7.28;3.65;;;;;;;;;;5073827;28;20163;-81
2021/05/12 07:21:49;;;;;;;6.40;3.83;;;;;;;;;;5073759;28;20657;-81
2021/05/12 07:24:14;;;;;;;6.07;3.72;;;;;;;;;;5073457;28;20532;-81
2021/05/12 07:26:39;;;;;;;9.27;4.32;;;;;;;;;;5073506;28;20587;-80
2021/05/12 07:29:05;;;;;;;5.72;3.90;;;;;;;;;;5073741;28;20683;-80
2021/05/12 07:31:30;;;;;;;5.97;3.53;;;;;;;;;;5073589;28;20187;-80
2021/05/12 07:33:57;;;;;;;7.50;3.95;;;;;;;;;;5073954;28;20598;-81
2021/05/12 07:36:22;;;;;;;7.35;4.00;;;;;;;;;;5073918;28;20201;-81
2021/05/12 07:38:47;;;;;;;4.90;3.55;;;;;;;;;;5074177;28;20175;-81
2021/05/12 07:41:13;;;;;;;8.07;4.50;;;;;;;;;;5073897;28;20175;-80
2021/05/12 07:43:38;;;;;;;6.55;4.00;;;;;;;;;;5055215;28;20174;-81
2021/05/12 07:46:04;;;;;;;5.90;3.72;;;;;;;;;;5073251;28;20229;-80
2021/05/12 07:48:29;;;;;;;8.48;3.90;;;;;;;;;;5073586;28;20644;-80
2021/05/12 07:50:55;;;;;;;11.88;4.20;;;;;;;;;;5073763;28;20190;-81
2021/05/12 07:53:20;;;;;;;7.88;4.63;;;;;;;;;;5073238;28;20265;-80
2021/05/12 07:55:46;;;;;;;6.60;4.15;;;;;;;;;;5073474;28;20175;-81
2021/05/12 07:58:11;;;;;;;5.28;4.00;;;;;;;;;;5055938;28;20664;-80
2021/05/12 08:00:36;;;;;;;6.70;3.90;;;;;;;;;;5077425;28;20609;-82
2021/05/12 08:03:02;;;;;;;5.25;3.63;;;;;;;;;;5076487;28;20206;-81
2021/05/12 08:05:27;;;;;;;5.55;3.88;;;;;;;;;;5092763;28;20182;-81
2021/05/12 08:07:53;;;;;;;6.03;3.80;;;;;;;;;;5076096;28;20224;-81
2021/05/12 08:10:18;;;;;;;9.38;4.22;;;;;;;;;;5076670;28;20186;-81
2021/05/12 08:12:44;;;;;;;6.30;4.30;;;;;;;;;;5058577;28;20167;-81
2021/05/12 08:15:09;;;;;;;8.98;4.43;;;;;;;;;;5076370;28;20167;-81
2021/05/12 08:17:34;;;;;;;12.02;4.15;;;;;;;;;;5075918;28;20736;-81
2021/05/12 08:20:01;;;;;;;9.23;5.00;;;;;;;;;;5076326;28;20240;-81
2021/05/12 08:22:27;;;;;;;7.22;3.90;;;;;;;;;;5058342;28;20179;-81
2021/05/12 08:24:52;;;;;;;8.50;4.10;;;;;;;;;;5058336;28;20175;-81
2021/05/12 08:27:18;;;;;;;8.20;3.97;;;;;;;;;;5075367;28;20587;-81
2021/05/12 08:29:44;;;;;;;8.63;4.22;;;;;;;;;;5058560;28;20233;-81
2021/05/12 08:32:15;;;;;;;6.40;3.70;;;;;;;;;;5076597;28;20191;-81
2021/05/12 08:34:40;;;;;;;5.63;4.22;;;;;;;;;;5077253;28;20152;-81
2021/05/12 08:37:07;;;;;;;9.18;3.90;;;;;;;;;;5076686;28;20195;-81
2021/05/12 08:39:33;;;;;;;6.35;3.83;;;;;;;;;;5076492;28;20246;-81
2021/05/12 08:41:58;;;;;;;7.50;3.97;;;;;;;;;;5077073;28;20171;-81
2021/05/12 08:44:24;;;;;;;6.82;4.13;;;;;;;;;;5059340;28;20186;-81
2021/05/12 08:46:50;;;;;;;5.85;3.75;;;;;;;;;;5076746;28;20174;-81
2021/05/12 08:49:16;;;;;;;7.07;3.90;;;;;;;;;;5076153;28;20498;-81
2021/05/12 08:51:42;;;;;;;4.97;3.28;;;;;;;;;;5076397;28;20171;-81
2021/05/12 08:54:07;;;;;;;7.15;3.80;;;;;;;;;;5076905;28;20528;-81
2021/05/12 08:56:33;;;;;;;7.05;3.75;;;;;;;;;;5076783;28;20206;-81
2021/05/12 08:58:59;;;;;;;10.30;4.22;;;;;;;;;;5076502;28;20171;-81
2021/05/12 09:01:25;;;;;;;7.80;4.13;;;;;;;;;;5076224;28;20178;-80
2021/05/12 09:03:50;;;;;;;7.97;4.20;;;;;;;;;;5076764;28;20309;-81
2021/05/12 09:06:16;;;;;;;7.50;3.90;;;;;;;;;;5076680;28;20217;-81
2021/05/12 09:08:42;;;;;;;8.75;3.63;;;;;;;;;;5076084;28;20167;-81
2021/05/12 09:11:07;;;;;;;5.60;3.78;;;;;;;;;;5075683;28;20201;-81
2021/05/12 09:13:37;;;;;;;5.97;3.95;;;;;;;;;;5057989;28;20187;-81
2021/05/12 09:16:16;;;;;;;7.97;3.42;;;;;;;;;;5076111;28;20632;-81
2021/05/12 09:18:41;;;;;;;7.22;3.85;;;;;;;;;;5075350;28;20618;-81
2021/05/12 09:21:07;;;;;;;6.50;3.65;;;;;;;;;;5075100;28;20175;-81
2021/05/12 09:23:37;;;;;;;7.15;3.50;;;;;;;;;;5076316;28;20171;-81
2021/05/12 09:26:02;;;;;;;7.93;3.30;;;;;;;;;;5075765;28;20238;-81
2021/05/12 09:28:29;;;;;;;5.43;3.65;;;;;;;;;;5074874;28;20259;-81
2021/05/12 09:31:11;;;;;;;7.35;3.53;;;;;;;;;;5075676;28;20525;-82
2021/05/12 09:33:48;;;;;;;7.65;3.85;;;;;;;;;;5075813;28;20676;-80
2021/05/12 09:36:26;;;;;;;5.32;3.50;;;;;;;;;;5076033;28;20183;-80
2021/05/12 09:38:52;;;;;;;7.60;3.55;;;;;;;;;;5075562;28;20183;-80
2021/05/12 09:41:17;;;;;;;5.95;3.42;;;;;;;;;;5076087;28;20487;-80
2021/05/12 09:43:51;;;;;;;6.25;3.28;;;;;;;;;;5075398;28;20221;-80
2021/05/12 09:46:26;;;;;;;7.88;3.33;;;;;;;;;;5074952;28;20610;-80
2021/05/12 09:49:00;;;;;;;5.47;3.40;;;;;;;;;;5073237;28;20167;-80
2021/05/12 09:51:30;;;;;;;5.65;3.33;;;;;;;;;;5074295;28;20653;-81
2021/05/12 09:54:05;;;;;;;9.98;3.58;;;;;;;;;;5056895;28;20171;-80
2021/05/12 09:56:37;;;;;;;3.30;3.00;;;;;;;;;;5055844;28;20305;-80
2021/05/12 09:59:21;;;;;;;8.98;3.75;;;;;;;;;;5046681;28;20217;-80
2021/05/12 10:01:47;;;;;;;5.95;3.30;;;;;;;;;;5074671;28;20174;-80
2021/05/12 10:04:19;;;;;;;7.68;3.13;;;;;;;;;;5075072;28;20167;-80
2021/05/12 10:06:44;;;;;;;5.30;3.53;;;;;;;;;;5074186;28;20179;-80
2021/05/12 10:09:16;;;;;;;5.10;3.13;;;;;;;;;;5074916;28;20171;-80
2021/05/12 10:11:41;;;;;;;8.00;3.10;;;;;;;;;;5074579;28;20171;-80
2021/05/12 10:14:07;;;;;;;4.82;3.13;;;;;;;;;;5074472;28;20178;-80
2021/05/12 10:16:32;;;;;;;4.80;2.83;;;;;;;;;;5089803;28;20238;-80
2021/05/12 10:18:58;;;;;;;5.75;3.25;;;;;;;;;;5074843;28;20197;-80
2021/05/12 10:21:23;;;;;;;6.55;3.00;;;;;;;;;;5055975;28;20179;-80
2021/05/12 10:23:49;;;;;;;6.80;2.70;;;;;;;;;;5074576;28;20609;-80
2021/05/12 10:26:14;;;;;;;6.53;2.75;;;;;;;;;;5074173;28;20163;-80
2021/05/12 10:28:40;;;;;;;4.63;3.20;;;;;;;;;;5073664;28;20178;-80
2021/05/12 10:31:06;;;;;;;10.18;3.05;;;;;;;;;;5074072;28;20237;-80
2021/05/12 10:33:47;;;;;;;7.43;2.90;;;;;;;;;;5074037;28;20168;-80
2021/05/12 10:36:13;;;;;;;4.63;2.90;;;;;;;;;;5074393;28;20225;-80
2021/05/12 10:38:39;;;;;;;5.85;2.80;;;;;;;;;;5074387;28;20629;-80
2021/05/12 10:41:05;;;;;;;7.57;3.08;;;;;;;;;;5074211;28;20167;-80
2021/05/12 10:43:38;;;;;;;5.57;2.85;;;;;;;;;;5073367;28;20171;-80
2021/05/12 10:46:17;;;;;;;5.38;3.17;;;;;;;;;;5074487;28;20178;-80
2021/05/12 10:48:53;;;;;;;4.68;2.80;;;;;;;;;;5055788;28;20171;-80
2021/05/12 10:51:26;;;;;;;4.15;2.88;;;;;;;;;;5074702;28;20590;-80
2021/05/12 10:53:57;;;;;;;5.10;3.05;;;;;;;;;;5073864;28;20178;-80
2021/05/12 10:56:42;;;;;;;2.83;2.55;;;;;;;;;;5065247;28;20174;-80
2021/05/12 10:59:20;;;;;;;6.68;2.80;;;;;;;;;;5062410;28;20187;-80
2021/05/12 11:01:45;;;;;;;6.97;3.00;;;;;;;;;;5074589;28;20163;-80
2021/05/12 11:04:10;;;;;;;4.38;2.92;;;;;;;;;;5073595;28;20171;-80
2021/05/12 11:06:38;;;;;;;8.82;3.08;;;;;;;;;;5076161;28;20281;-80
2021/05/12 11:09:07;;;;;;;3.53;3.03;;;;;;;;;;5073635;28;20633;-80
2021/05/12 11:11:53;;;;;;;4.70;2.78;;;;;;;;;;5055791;28;20536;-80
2021/05/12 11:14:22;;;;;;;3.05;2.30;;;;;;;;;;5072053;28;20187;-81
2021/05/12 11:17:07;;;;;;;5.68;2.70;;;;;;;;;;5054253;28;20716;-80
2021/05/12 11:19:38;;;;;;;3.60;2.95;;;;;;;;;;5072687;28;20167;-80
2021/05/12 11:22:22;;;;;;;5.97;3.20;;;;;;;;;;5087414;28;20179;-80
2021/05/12 11:24:49;;;;;;;6.72;3.00;;;;;;;;;;5085293;28;20184;-80
2021/05/12 11:27:27;;;;;;;7.50;2.80;;;;;;;;;;5072234;28;20166;-80
2021/05/12 11:32:23;;;;;;;7.15;3.03;;;;;;;;;;5073157;28;20195;-80
2021/05/12 11:34:48;;;;;;;8.35;2.97;;;;;;;;;;5077364;28;20209;-80
2021/05/12 11:37:24;;;;;;;5.93;3.20;;;;;;;;;;5076491;28;20202;-80
2021/05/12 11:39:51;;;;;;;4.28;2.85;;;;;;;;;;5074834;28;20497;-81
2021/05/12 11:42:25;;;;;;;5.35;2.97;;;;;;;;;;5077664;28;20219;-80
2021/05/12 11:45:02;;;;;;;4.15;3.00;;;;;;;;;;5077831;28;20170;-81
2021/05/12 11:47:31;;;;;;;5.10;2.40;;;;;;;;;;5078034;28;20160;-80
2021/05/12 11:49:56;;;;;;;8.27;3.53;;;;;;;;;;5077559;28;20171;-80
2021/05/12 11:52:28;;;;;;;5.57;3.00;;;;;;;;;;5077426;28;20270;-80
2021/05/12 11:54:54;;;;;;;10.93;3.10;;;;;;;;;;5059519;28;20171;-80
2021/05/12 11:57:19;;;;;;;7.68;2.83;;;;;;;;;;5058879;28;20684;-80
2021/05/12 11:59:44;;;;;;;5.93;2.97;;;;;;;;;;5076745;28;20175;-80
2021/05/12 12:02:12;;;;;;;5.20;2.97;;;;;;;;;;5077241;28;20171;-80
2021/05/12 12:04:50;;;;;;;9.23;3.00;;;;;;;;;;5076488;28;20618;-80
2021/05/12 12:07:15;;;;;;;3.88;2.45;;;;;;;;;;5064115;28;20563;-80
2021/05/12 12:09:41;;;;;;;5.60;2.80;;;;;;;;;;5075504;28;20225;-80
2021/05/12 12:12:06;;;;;;;6.22;2.85;;;;;;;;;;5077017;28;20167;-81
2021/05/12 12:14:32;;;;;;;7.32;3.08;;;;;;;;;;5058862;28;20167;-80
2021/05/12 12:16:58;;;;;;;6.82;3.30;;;;;;;;;;5058180;28;20600;-80
2021/05/12 12:19:26;;;;;;;8.88;3.13;;;;;;;;;;5076360;28;20201;-80
2021/05/12 12:21:54;;;;;;;6.80;3.20;;;;;;;;;;5058933;28;20525;-80
2021/05/12 12:24:23;;;;;;;5.35;3.22;;;;;;;;;;5076815;28;20167;-80
2021/05/12 12:26:53;;;;;;;6.10;3.10;;;;;;;;;;5077004;28;20182;-80
2021/05/12 12:29:22;;;;;;;7.72;3.20;;;;;;;;;;5058972;28;20575;-80
2021/05/12 12:31:51;;;;;;;4.82;3.00;;;;;;;;;;5076323;28;20191;-80
2021/05/12 12:34:18;;;;;;;5.78;3.10;;;;;;;;;;5075982;28;20206;-80
2021/05/12 12:36:48;;;;;;;5.60;3.10;;;;;;;;;;5073612;28;20211;-80
2021/05/12 12:39:13;;;;;;;5.07;3.15;;;;;;;;;;5076177;28;20228;-80
2021/05/12 12:41:39;;;;;;;8.63;3.22;;;;;;;;;;5075910;28;20167;-80
2021/05/12 12:44:04;;;;;;;4.00;3.20;;;;;;;;;;5075472;28;20175;-80
2021/05/12 12:46:29;;;;;;;4.35;2.47;;;;;;;;;;5077217;28;20175;-80
2021/05/12 12:48:55;;;;;;;4.45;3.00;;;;;;;;;;5058094;28;20217;-80
2021/05/12 12:51:54;;;;;;;6.82;3.03;;;;;;;;;;5076352;28;20167;-80
2021/05/12 12:54:32;;;;;;;4.13;3.30;;;;;;;;;;5042497;28;20183;-80
2021/05/12 12:56:58;;;;;;;3.95;3.05;;;;;;;;;;5089471;28;20214;-80
2021/05/12 12:59:23;;;;;;;6.15;3.13;;;;;;;;;;5075894;28;20198;-80
2021/05/12 13:01:49;;;;;;;7.70;3.50;;;;;;;;;;5075960;28;20591;-80
2021/05/12 13:04:14;;;;;;;6.72;3.50;;;;;;;;;;5075095;28;20171;-81
2021/05/12 13:06:40;;;;;;;9.35;3.20;;;;;;;;;;5057558;28;20183;-81
2021/05/12 13:09:24;;;;;;;6.28;3.25;;;;;;;;;;5075187;28;20186;-82
2021/05/12 13:11:57;;;;;;;5.28;2.95;;;;;;;;;;5056060;28;20211;-80
2021/05/12 13:14:23;;;;;;;7.78;3.42;;;;;;;;;;5056191;28;20207;-81
2021/05/12 13:16:48;;;;;;;6.07;3.35;;;;;;;;;;5084942;28;20270;-81
2021/05/12 13:19:17;;;;;;;5.15;3.42;;;;;;;;;;5075300;28;20187;-80
2021/05/12 13:21:49;;;;;;;3.60;3.00;;;;;;;;;;5075495;28;20610;-80
2021/05/12 13:24:21;;;;;;;7.28;4.00;;;;;;;;;;5057254;28;20171;-80
2021/05/12 13:26:53;;;;;;;5.82;3.92;;;;;;;;;;5075059;28;20568;-80
2021/05/12 13:29:19;;;;;;;4.50;3.03;;;;;;;;;;5075511;28;20510;-80
2021/05/12 13:31:45;;;;;;;6.85;3.67;;;;;;;;;;5057514;28;20191;-79
2021/05/12 13:34:14;;;;;;;6.60;3.22;;;;;;;;;;5075859;28;20194;-80
2021/05/12 13:36:41;;;;;;;8.23;3.38;;;;;;;;;;5057617;28;20207;-80
2021/05/12 13:39:06;;;;;;;5.93;3.55;;;;;;;;;;5075711;28;20648;-80
2021/05/12 13:41:32;;;;;;;7.30;4.00;;;;;;;;;;5075019;28;20175;-81
2021/05/12 13:43:57;;;;;;;7.38;3.85;;;;;;;;;;5057176;28;20270;-81
2021/05/12 13:46:23;;;;;;;5.70;3.35;;;;;;;;;;5075353;28;20168;-81
2021/05/12 13:48:48;;;;;;;5.25;3.72;;;;;;;;;;5075238;28;20178;-80
2021/05/12 13:51:14;;;;;;;10.60;3.85;;;;;;;;;;5075229;28;20163;-80
2021/05/12 13:53:49;;;;;;;10.30;4.43;;;;;;;;;;5075025;28;20175;-80
2021/05/12 14:03:59;;;;;;;5.18;4.15;;;;;;;;;;5075059;28;20288;-81
2021/05/12 14:06:34;;;;;;;5.53;3.97;;;;;;;;;;5056770;28;20232;-81
2021/05/12 14:09:09;;;;;;;7.68;4.30;;;;;;;;;;5075479;28;20151;-81
2021/05/12 14:11:36;;;;;;;7.78;4.35;;;;;;;;;;5074827;28;20591;-81
2021/05/12 14:14:06;;;;;;;5.43;4.38;;;;;;;;;;5074459;28;20610;-81
2021/05/12 14:16:38;;;;;;;7.20;4.00;;;;;;;;;;5074280;28;20226;-81
2021/05/12 14:19:03;;;;;;;7.32;4.45;;;;;;;;;;5057295;28;20175;-81
2021/05/12 14:21:29;;;;;;;5.78;4.53;;;;;;;;;;5074628;28;20609;-81
2021/05/12 14:23:54;;;;;;;6.18;4.22;;;;;;;;;;5074552;28;20167;-81
2021/05/12 14:26:20;;;;;;;4.85;4.38;;;;;;;;;;5074614;28;20613;-81
2021/05/12 14:28:55;;;;;;;13.48;4.55;;;;;;;;;;5075149;28;20175;-81
2021/05/12 14:31:22;;;;;;;5.35;4.68;;;;;;;;;;5074778;28;20659;-81
2021/05/12 14:33:48;;;;;;;8.38;4.93;;;;;;;;;;5086729;28;20174;-81
2021/05/12 14:36:14;;;;;;;5.80;5.00;;;;;;;;;;5084200;28;20513;-81
2021/05/12 14:38:39;;;;;;;7.72;5.05;;;;;;;;;;5094456;28;20206;-81
2021/05/12 14:41:04;;;;;;;7.90;4.95;;;;;;;;;;5094247;28;20613;-81
2021/05/12 14:43:30;;;;;;;10.05;5.05;;;;;;;;;;5079015;28;20175;-82
2021/05/12 14:45:55;;;;;;;7.05;4.90;;;;;;;;;;5056280;28;20552;-82
2021/05/12 14:48:27;;;;;;;13.20;5.20;;;;;;;;;;5074230;28;20175;-81
2021/05/12 14:50:54;;;;;;;10.13;5.28;;;;;;;;;;5074534;28;20545;-81
2021/05/12 14:53:24;;;;;;;5.80;4.97;;;;;;;;;;5074425;28;20254;-81